Time;durP1;ratioP1;P1;durP2;ratioP2;P2;SDS_P1;SDS_P2;PMS_P1;PMS_P2;Temp;Humidity;BMP_temperature;BMP_pressure;BME280_temperature;BME280_humidity;BME280_pressure;Samples;Min_cycle;Max_cycle;Signal;HPM_P1;HPM_P2
2023/03/12 00:00:40;;;;;;;8.10;6.20;;;0.90;99.90;;;;;;5013148;28;20529;-72
2023/03/12 00:03:06;;;;;;;13.00;6.30;;;0.80;99.90;;;;;;5013441;28;20179;-71
2023/03/12 00:05:31;;;;;;;13.47;5.87;;;0.80;99.90;;;;;;5013246;28;20421;-72
2023/03/12 00:07:58;;;;;;;6.60;6.00;;;0.70;99.90;;;;;;5013002;28;20281;-72
2023/03/12 00:10:25;;;;;;;7.67;5.00;;;0.80;99.90;;;;;;5011650;28;20226;-72
2023/03/12 00:12:51;;;;;;;10.53;6.87;;;0.80;99.90;;;;;;5012816;28;20434;-71
2023/03/12 00:15:17;;;;;;;15.83;7.70;;;0.80;99.90;;;;;;5012973;28;20437;-72
2023/03/12 00:17:42;;;;;;;7.93;5.63;;;0.80;99.90;;;;;;5013207;28;20418;-72
2023/03/12 00:20:09;;;;;;;11.17;6.30;;;0.80;99.90;;;;;;5011986;28;20202;-71
2023/03/12 00:22:34;;;;;;;8.90;5.73;;;0.80;99.90;;;;;;5010933;28;20320;-72
2023/03/12 00:25:00;;;;;;;10.87;6.80;;;0.80;99.90;;;;;;5010037;28;20946;-71
2023/03/12 00:27:26;;;;;;;7.93;5.47;;;0.80;99.90;;;;;;5019887;28;20683;-72
2023/03/12 00:29:52;;;;;;;13.13;6.40;;;0.70;99.90;;;;;;5021961;28;20456;-72
2023/03/12 00:32:17;;;;;;;10.33;7.47;;;0.80;99.90;;;;;;5018905;28;20193;-72
2023/03/12 00:34:43;;;;;;;13.30;7.30;;;0.80;99.90;;;;;;5008918;28;20178;-72
2023/03/12 00:37:09;;;;;;;14.73;8.30;;;0.80;99.90;;;;;;5019073;28;20182;-72
2023/03/12 00:39:34;;;;;;;9.00;7.60;;;0.70;99.90;;;;;;5016936;28;20226;-72
2023/03/12 00:42:00;;;;;;;11.93;6.87;;;0.70;99.90;;;;;;5015611;28;20264;-71
2023/03/12 00:44:26;;;;;;;15.43;7.70;;;0.70;99.90;;;;;;5008875;28;20171;-70
2023/03/12 00:46:52;;;;;;;10.43;6.20;;;0.70;99.90;;;;;;5004349;28;20445;-70
2023/03/12 00:49:17;;;;;;;10.57;7.50;;;0.70;99.90;;;;;;5019945;28;20215;-70
2023/03/12 00:51:43;;;;;;;11.70;6.70;;;0.60;99.90;;;;;;5018842;28;20187;-70
2023/03/12 00:54:09;;;;;;;11.87;6.50;;;0.50;99.90;;;;;;5009434;28;20552;-70
2023/03/12 00:56:34;;;;;;;10.37;6.17;;;0.50;99.90;;;;;;5017894;28;20175;-70
2023/03/12 00:59:00;;;;;;;9.40;6.00;;;0.50;99.90;;;;;;5010823;28;20289;-72
2023/03/12 01:01:26;;;;;;;12.77;7.40;;;0.60;99.90;;;;;;5007373;28;20297;-70
2023/03/12 01:03:52;;;;;;;7.63;5.93;;;0.60;99.90;;;;;;5019546;28;20659;-71
2023/03/12 01:06:18;;;;;;;10.87;6.73;;;0.70;99.90;;;;;;5016536;28;20430;-70
2023/03/12 01:08:43;;;;;;;6.07;4.90;;;0.70;99.90;;;;;;5011752;28;20461;-69
2023/03/12 01:11:17;;;;;;;6.13;4.60;;;0.80;99.90;;;;;;5008563;28;20187;-71
2023/03/12 01:13:43;;;;;;;10.30;5.60;;;0.80;99.90;;;;;;5012454;28;20262;-71
2023/03/12 01:16:09;;;;;;;6.47;5.70;;;0.90;99.90;;;;;;5016774;28;20544;-70
2023/03/12 01:18:35;;;;;;;6.30;5.67;;;0.90;99.90;;;;;;5009888;28;20434;-72
2023/03/12 01:21:01;;;;;;;9.47;6.13;;;0.90;99.90;;;;;;5011016;28;20464;-71
2023/03/12 01:23:27;;;;;;;9.90;6.03;;;0.90;99.90;;;;;;5010721;28;20182;-71
2023/03/12 01:25:54;;;;;;;7.60;4.70;;;0.90;99.90;;;;;;5028016;28;20437;-72
2023/03/12 01:28:21;;;;;;;10.57;4.80;;;1.00;99.90;;;;;;5007267;28;20206;-72
2023/03/12 01:30:47;;;;;;;8.57;5.37;;;1.00;99.90;;;;;;5014747;28;21041;-72
2023/03/12 01:33:12;;;;;;;8.00;4.93;;;1.00;99.90;;;;;;5014207;28;20528;-71
2023/03/12 01:35:39;;;;;;;5.90;5.10;;;1.00;99.90;;;;;;5011525;28;20558;-71
2023/03/12 01:38:13;;;;;;;7.63;5.13;;;1.10;99.90;;;;;;5011863;28;20194;-72
2023/03/12 01:40:39;;;;;;;7.50;5.07;;;1.10;99.90;;;;;;5011988;28;20442;-69
2023/03/12 01:43:30;;;;;;;5.73;5.13;;;1.10;99.90;;;;;;5012084;28;20829;-69
2023/03/12 01:46:20;;;;;;;6.00;5.40;;;1.10;99.90;;;;;;5014616;28;20856;-71
2023/03/12 01:48:51;;;;;;;7.23;4.97;;;1.20;99.90;;;;;;5009110;28;20456;-71
2023/03/12 01:51:19;;;;;;;12.10;5.73;;;1.20;99.90;;;;;;5015877;28;20907;-71
2023/03/12 01:53:49;;;;;;;7.60;4.87;;;1.20;99.90;;;;;;5019039;28;20937;-72
2023/03/12 01:56:17;;;;;;;6.77;5.10;;;1.30;99.90;;;;;;5015767;28;20452;-69
2023/03/12 01:58:51;;;;;;;5.50;4.50;;;1.30;99.90;;;;;;5010024;28;20938;-72
2023/03/12 02:01:18;;;;;;;6.90;5.00;;;1.40;99.90;;;;;;5015954;28;20954;-71
2023/03/12 02:03:46;;;;;;;6.40;4.60;;;1.40;99.90;;;;;;5020172;28;20428;-71
2023/03/12 02:06:14;;;;;;;7.87;5.07;;;1.50;99.90;;;;;;5020506;28;20446;-70
2023/03/12 02:08:42;;;;;;;8.30;6.07;;;1.50;99.90;;;;;;5019789;28;20985;-70
2023/03/12 02:11:09;;;;;;;5.93;5.40;;;1.60;99.90;;;;;;5013818;28;20437;-71
2023/03/12 02:13:35;;;;;;;7.47;5.60;;;1.60;99.90;;;;;;5013725;28;20860;-71
2023/03/12 02:16:00;;;;;;;7.77;5.40;;;1.60;99.90;;;;;;5012641;28;20429;-69
2023/03/12 02:18:26;;;;;;;8.73;5.00;;;1.60;99.90;;;;;;5023036;28;20447;-72
2023/03/12 02:21:09;;;;;;;8.03;6.00;;;1.60;99.90;;;;;;5020692;28;20226;-70
2023/03/12 02:23:46;;;;;;;10.40;6.10;;;1.70;99.90;;;;;;5017928;28;20186;-71
2023/03/12 02:26:13;;;;;;;9.20;5.40;;;1.70;99.90;;;;;;5015048;28;20448;-69
2023/03/12 02:28:42;;;;;;;9.80;6.10;;;1.70;99.90;;;;;;5015810;28;20461;-70
2023/03/12 02:31:11;;;;;;;9.10;5.50;;;1.60;99.90;;;;;;5015774;28;20474;-71
2023/03/12 02:33:36;;;;;;;6.90;5.50;;;1.60;99.90;;;;;;5014324;28;20435;-68
2023/03/12 02:36:02;;;;;;;8.00;5.40;;;1.60;99.90;;;;;;5017935;28;20443;-69
2023/03/12 02:38:37;;;;;;;5.83;4.80;;;1.60;99.90;;;;;;5019736;28;20189;-71
2023/03/12 02:41:21;;;;;;;6.13;5.53;;;1.60;99.90;;;;;;5018718;28;20197;-71
2023/03/12 02:44:21;;;;;;;6.27;5.30;;;1.70;99.90;;;;;;5009471;28;21525;-70
2023/03/12 02:46:50;;;;;;;6.13;5.30;;;1.70;99.90;;;;;;5007158;28;20821;-72
2023/03/12 02:49:17;;;;;;;8.53;7.00;;;1.70;99.90;;;;;;5019478;28;20964;-69
2023/03/12 02:51:44;;;;;;;6.10;5.50;;;1.80;99.90;;;;;;5022328;28;20440;-69
2023/03/12 02:54:11;;;;;;;6.50;5.60;;;1.80;99.90;;;;;;5027811;28;20459;-71
2023/03/12 02:56:36;;;;;;;8.93;5.70;;;1.70;99.90;;;;;;5015582;28;20834;-72
2023/03/12 02:59:03;;;;;;;6.33;5.20;;;1.80;99.90;;;;;;5009564;28;20457;-72
2023/03/12 03:01:28;;;;;;;8.57;5.90;;;1.80;99.90;;;;;;5019595;28;20182;-71
2023/03/12 03:03:54;;;;;;;6.57;5.97;;;1.80;99.90;;;;;;5025323;28;20506;-72
2023/03/12 03:06:20;;;;;;;8.40;5.73;;;1.70;99.90;;;;;;5016238;28;20183;-72
2023/03/12 03:08:46;;;;;;;7.77;6.53;;;1.70;99.90;;;;;;5019080;28;20570;-72
2023/03/12 03:11:11;;;;;;;6.70;4.87;;;1.70;99.90;;;;;;5011098;28;20434;-69
2023/03/12 03:13:37;;;;;;;7.73;5.80;;;1.70;99.90;;;;;;5014892;28;20178;-71
2023/03/12 03:16:03;;;;;;;6.03;5.43;;;1.70;99.90;;;;;;5013784;28;20472;-69
2023/03/12 03:18:29;;;;;;;6.83;4.90;;;1.60;99.90;;;;;;5022894;28;20217;-69
2023/03/12 03:21:01;;;;;;;6.93;6.00;;;1.60;99.90;;;;;;5014271;28;20472;-71
2023/03/12 03:23:26;;;;;;;5.77;5.03;;;1.60;99.90;;;;;;5013537;28;20453;-71
2023/03/12 03:25:52;;;;;;;6.50;5.33;;;1.70;99.90;;;;;;5011876;28;20919;-70
2023/03/12 03:28:19;;;;;;;7.17;5.90;;;1.70;99.90;;;;;;5017920;28;20238;-71
2023/03/12 03:30:45;;;;;;;7.63;5.60;;;1.80;99.90;;;;;;5020701;28;20457;-71
2023/03/12 03:33:11;;;;;;;9.53;5.37;;;1.80;99.90;;;;;;5025122;28;20445;-71
2023/03/12 03:35:36;;;;;;;8.33;4.97;;;1.80;99.90;;;;;;5013919;28;20441;-71
2023/03/12 03:38:03;;;;;;;8.10;5.23;;;1.80;99.90;;;;;;5013788;28;20649;-71
2023/03/12 03:40:28;;;;;;;9.13;4.97;;;1.80;99.90;;;;;;5013191;28;20226;-71
2023/03/12 03:42:54;;;;;;;11.10;5.90;;;1.70;99.90;;;;;;5013905;28;20449;-71
2023/03/12 03:45:19;;;;;;;10.13;5.70;;;1.70;99.90;;;;;;5013281;28;20683;-71
2023/03/12 03:47:45;;;;;;;5.80;5.10;;;1.70;99.90;;;;;;5013524;28;20199;-71
2023/03/12 03:50:11;;;;;;;5.40;4.83;;;1.70;99.90;;;;;;5013025;28;20253;-71
2023/03/12 03:52:37;;;;;;;6.10;5.20;;;1.70;99.90;;;;;;5012299;28;20190;-71
2023/03/12 03:55:03;;;;;;;6.57;5.50;;;1.70;99.90;;;;;;5010162;28;20438;-71
2023/03/12 03:57:28;;;;;;;6.80;6.07;;;1.60;99.90;;;;;;5018229;28;20613;-71
2023/03/12 03:59:55;;;;;;;6.73;4.83;;;1.60;99.90;;;;;;5008432;28;20464;-72
2023/03/12 04:02:20;;;;;;;11.13;4.90;;;1.60;99.90;;;;;;5015937;28;20175;-70
2023/03/12 04:04:46;;;;;;;10.00;5.67;;;1.60;99.90;;;;;;5017420;28;20812;-71
2023/03/12 04:07:12;;;;;;;6.53;5.13;;;1.70;99.90;;;;;;5018522;28;20184;-71
2023/03/12 04:09:38;;;;;;;8.63;5.50;;;1.70;99.90;;;;;;5012601;28;20468;-70
2023/03/12 04:12:03;;;;;;;6.53;5.47;;;1.70;99.90;;;;;;5011727;28;20210;-71
2023/03/12 04:14:29;;;;;;;6.40;5.70;;;1.80;99.90;;;;;;5020551;28;20245;-70
2023/03/12 04:16:55;;;;;;;8.57;4.90;;;1.80;99.90;;;;;;5008998;28;20228;-71
2023/03/12 04:19:20;;;;;;;6.73;4.23;;;1.80;99.90;;;;;;5010235;28;20477;-71
2023/03/12 04:21:46;;;;;;;7.50;5.13;;;1.90;99.90;;;;;;5016151;28;20201;-71
2023/03/12 04:24:15;;;;;;;6.60;5.10;;;1.90;99.90;;;;;;5020648;28;20197;-71
2023/03/12 04:26:42;;;;;;;8.30;5.00;;;1.90;99.90;;;;;;5009324;28;20714;-70
2023/03/12 04:29:07;;;;;;;6.50;5.63;;;2.00;99.90;;;;;;5004927;28;20560;-72
2023/03/12 04:31:33;;;;;;;5.67;4.90;;;2.00;99.90;;;;;;5014656;28;20862;-70
2023/03/12 04:33:58;;;;;;;8.00;5.30;;;2.00;99.90;;;;;;5013107;28;20656;-72
2023/03/12 04:36:24;;;;;;;6.50;5.13;;;2.00;99.90;;;;;;5008228;28;20274;-71
2023/03/12 04:38:50;;;;;;;6.70;5.10;;;2.10;99.90;;;;;;5007624;28;20221;-71
2023/03/12 04:41:16;;;;;;;5.23;4.77;;;2.10;99.90;;;;;;5009351;28;20495;-71
2023/03/12 04:43:42;;;;;;;7.03;4.70;;;2.20;99.90;;;;;;5018346;28;20190;-71
2023/03/12 04:46:08;;;;;;;6.50;5.37;;;2.20;99.90;;;;;;5007867;28;20458;-71
2023/03/12 04:48:34;;;;;;;5.87;5.20;;;2.40;99.90;;;;;;5007041;28;20210;-71
2023/03/12 04:51:00;;;;;;;7.63;5.43;;;2.40;99.90;;;;;;5014619;28;20445;-72
2023/03/12 04:53:26;;;;;;;8.33;4.83;;;2.50;99.90;;;;;;5011861;28;20453;-71
2023/03/12 04:55:51;;;;;;;7.37;4.47;;;2.60;99.90;;;;;;5010217;28;20455;-71
2023/03/12 04:58:18;;;;;;;5.47;4.97;;;2.60;99.90;;;;;;5018015;28;20189;-71
2023/03/12 05:00:44;;;;;;;5.73;5.00;;;2.70;99.90;;;;;;5016708;28;20215;-72
2023/03/12 05:03:10;;;;;;;5.60;4.73;;;2.70;99.90;;;;;;5016435;28;20519;-71
2023/03/12 05:05:35;;;;;;;7.97;4.90;;;2.70;99.90;;;;;;5012541;28;20441;-71
2023/03/12 05:08:02;;;;;;;7.80;5.00;;;2.60;99.90;;;;;;5009332;28;20214;-71
2023/03/12 05:10:28;;;;;;;8.93;5.67;;;2.60;99.90;;;;;;5020562;28;20290;-70
2023/03/12 05:12:53;;;;;;;10.90;5.50;;;2.60;99.90;;;;;;5018448;28;20560;-71
2023/03/12 05:15:19;;;;;;;8.27;5.07;;;2.70;99.90;;;;;;5005933;28;20845;-70
2023/03/12 05:17:45;;;;;;;8.57;5.70;;;2.70;99.90;;;;;;5010384;28;20175;-70
2023/03/12 05:20:11;;;;;;;6.63;4.73;;;2.80;99.90;;;;;;5018141;28;20270;-70
2023/03/12 05:22:37;;;;;;;8.23;5.70;;;2.80;99.90;;;;;;5011804;28;20189;-71
2023/03/12 05:25:03;;;;;;;9.60;5.07;;;2.80;99.90;;;;;;5015205;28;20433;-71
2023/03/12 05:27:29;;;;;;;5.70;4.80;;;2.90;99.90;;;;;;5011334;28;20544;-71
2023/03/12 05:29:54;;;;;;;7.97;5.40;;;2.90;99.90;;;;;;5014833;28;20518;-71
2023/03/12 05:32:20;;;;;;;8.30;6.47;;;2.90;99.90;;;;;;5021684;28;20189;-71
2023/03/12 05:34:46;;;;;;;10.80;5.60;;;3.00;99.90;;;;;;5031903;28;20178;-70
2023/03/12 05:37:11;;;;;;;8.33;6.00;;;2.90;99.90;;;;;;5016595;28;20193;-71
2023/03/12 05:39:37;;;;;;;7.40;5.90;;;2.90;99.90;;;;;;5010712;28;20203;-70
2023/03/12 05:42:03;;;;;;;13.50;6.00;;;2.80;99.90;;;;;;5011557;28;20186;-71
2023/03/12 05:44:29;;;;;;;7.03;6.43;;;2.70;99.90;;;;;;5012117;28;20179;-71
2023/03/12 05:46:54;;;;;;;8.20;6.43;;;2.70;99.90;;;;;;5012070;28;20432;-70
2023/03/12 05:49:20;;;;;;;6.47;5.87;;;2.60;99.90;;;;;;5010672;28;20703;-71
2023/03/12 05:51:48;;;;;;;11.70;6.37;;;2.60;99.90;;;;;;5011904;28;20183;-70
2023/03/12 05:54:15;;;;;;;12.03;6.50;;;2.70;99.90;;;;;;5018685;28;20479;-71
2023/03/12 05:56:40;;;;;;;8.03;6.73;;;2.80;99.90;;;;;;5015473;28;20442;-71
2023/03/12 05:59:06;;;;;;;7.03;5.60;;;2.80;99.90;;;;;;5018003;28;20465;-71
2023/03/12 06:01:32;;;;;;;11.33;7.33;;;2.80;99.90;;;;;;5009735;28;20214;-70
2023/03/12 06:03:58;;;;;;;7.83;6.13;;;2.80;99.90;;;;;;5013710;28;20641;-71
2023/03/12 06:06:23;;;;;;;7.70;6.53;;;2.80;99.90;;;;;;5012325;28;20245;-70
2023/03/12 06:08:50;;;;;;;8.40;6.83;;;2.90;99.90;;;;;;5012754;28;20969;-71
2023/03/12 06:11:16;;;;;;;11.70;6.30;;;2.90;99.90;;;;;;5005858;28;20652;-71
2023/03/12 06:13:42;;;;;;;10.20;6.03;;;3.00;99.90;;;;;;5015451;28;20528;-71
2023/03/12 06:16:14;;;;;;;6.83;6.10;;;2.90;99.90;;;;;;5011071;28;20218;-71
2023/03/12 06:18:39;;;;;;;8.87;6.90;;;3.00;99.90;;;;;;5008074;28;20275;-71
2023/03/12 06:21:11;;;;;;;9.20;6.63;;;2.80;99.90;;;;;;5018371;28;20454;-70
2023/03/12 06:23:37;;;;;;;7.17;6.47;;;2.70;99.90;;;;;;5012605;28;20442;-71
2023/03/12 06:26:03;;;;;;;7.70;7.00;;;2.60;99.90;;;;;;5015090;28;20478;-71
2023/03/12 06:28:29;;;;;;;8.43;6.00;;;2.60;99.90;;;;;;5016855;28;20586;-70
2023/03/12 06:30:55;;;;;;;7.73;6.83;;;2.70;99.90;;;;;;5022939;28;20535;-70
2023/03/12 06:33:21;;;;;;;10.63;6.97;;;2.70;99.90;;;;;;5022096;28;20178;-70
2023/03/12 06:35:46;;;;;;;10.90;8.27;;;2.80;99.90;;;;;;5011783;28;20244;-70
2023/03/12 06:38:12;;;;;;;11.17;6.43;;;2.80;99.90;;;;;;5005877;28;20198;-70
2023/03/12 06:40:38;;;;;;;15.87;7.73;;;2.90;99.90;;;;;;5018544;28;20232;-70
2023/03/12 06:43:03;;;;;;;7.47;6.60;;;2.70;99.90;;;;;;5025465;28;20685;-71
2023/03/12 06:45:29;;;;;;;8.37;7.60;;;2.50;99.90;;;;;;5023076;28;20193;-70
2023/03/12 06:47:54;;;;;;;7.33;6.60;;;2.40;99.90;;;;;;5009615;28;20195;-70
2023/03/12 06:50:20;;;;;;;11.53;7.43;;;2.30;99.90;;;;;;5021155;28;20204;-70
2023/03/12 06:52:45;;;;;;;9.03;7.00;;;2.10;99.90;;;;;;5019004;28;20215;-71
2023/03/12 06:55:11;;;;;;;9.30;7.80;;;2.00;99.90;;;;;;5013150;28;20614;-71
2023/03/12 06:57:36;;;;;;;8.80;7.90;;;1.90;99.90;;;;;;5016857;28;20205;-71
2023/03/12 07:00:03;;;;;;;9.43;8.50;;;1.90;99.90;;;;;;5021464;28;20209;-70
2023/03/12 07:02:29;;;;;;;13.43;9.40;;;1.80;99.90;;;;;;5019499;28;20187;-71
2023/03/12 07:04:55;;;;;;;10.27;9.27;;;1.80;99.90;;;;;;5016534;28;20442;-71
2023/03/12 07:07:20;;;;;;;12.00;9.83;;;1.80;99.90;;;;;;5010485;28;20193;-70
2023/03/12 07:09:46;;;;;;;11.10;9.87;;;1.80;99.90;;;;;;5014917;28;20202;-71
2023/03/12 07:12:11;;;;;;;12.60;10.47;;;1.80;99.90;;;;;;5024870;28;20190;-72
2023/03/12 07:14:37;;;;;;;12.37;11.07;;;1.80;99.90;;;;;;5017207;28;20174;-72
2023/03/12 07:17:03;;;;;;;13.50;10.27;;;1.70;99.90;;;;;;5016505;28;20179;-72
2023/03/12 07:19:31;;;;;;;13.20;11.80;;;1.60;99.90;;;;;;5010456;28;20246;-72
2023/03/12 07:21:57;;;;;;;12.00;10.50;;;1.60;99.90;;;;;;5020440;28;20270;-71
2023/03/12 07:24:22;;;;;;;14.77;11.53;;;1.60;99.90;;;;;;5022941;28;20508;-72
2023/03/12 07:26:48;;;;;;;15.10;12.47;;;1.70;99.90;;;;;;5025622;28;20182;-71
2023/03/12 07:29:13;;;;;;;12.03;10.83;;;1.70;99.90;;;;;;5012921;28;20693;-72
2023/03/12 07:31:39;;;;;;;12.70;11.50;;;1.70;99.90;;;;;;5014148;28;20553;-71
2023/03/12 07:34:05;;;;;;;12.40;11.10;;;1.80;99.90;;;;;;5054674;22;20316;-69
2023/03/12 07:36:31;;;;;;;14.87;11.23;;;1.80;99.90;;;;;;5053637;28;20196;-69
2023/03/12 07:38:56;;;;;;;12.23;11.10;;;1.90;99.90;;;;;;5053056;28;20184;-67
2023/03/12 07:41:22;;;;;;;16.10;11.30;;;1.90;99.90;;;;;;5052442;28;20424;-69
2023/03/12 07:43:48;;;;;;;14.63;11.97;;;1.90;99.90;;;;;;5052309;28;20204;-68
2023/03/12 07:46:13;;;;;;;19.00;12.87;;;2.00;99.90;;;;;;5053623;28;20170;-69
2023/03/12 07:48:39;;;;;;;24.03;12.00;;;2.00;99.90;;;;;;5052849;28;20237;-68
2023/03/12 07:51:05;;;;;;;13.30;11.13;;;2.10;99.90;;;;;;5053578;28;20172;-69
2023/03/12 07:53:30;;;;;;;10.83;9.73;;;2.20;99.90;;;;;;5052685;28;20197;-69
2023/03/12 07:55:56;;;;;;;14.50;10.37;;;2.30;99.90;;;;;;5048283;28;20442;-68
2023/03/12 07:58:22;;;;;;;11.57;9.37;;;2.50;99.90;;;;;;5058585;28;20192;-69
2023/03/12 08:00:47;;;;;;;16.30;11.53;;;2.60;99.90;;;;;;5061796;28;20185;-69
2023/03/12 08:03:13;;;;;;;16.23;9.73;;;2.80;99.90;;;;;;5059478;28;20225;-68
2023/03/12 08:05:39;;;;;;;15.83;9.97;;;2.90;99.90;;;;;;5053878;28;20227;-68
2023/03/12 08:08:05;;;;;;;14.00;9.10;;;3.10;99.90;;;;;;5056312;28;20200;-67
2023/03/12 08:10:30;;;;;;;9.87;7.90;;;3.40;99.90;;;;;;5061629;28;20173;-69
2023/03/12 08:12:56;;;;;;;13.90;10.17;;;3.50;99.90;;;;;;5055469;28;20427;-68
2023/03/12 08:15:21;;;;;;;11.17;7.70;;;3.60;99.90;;;;;;5060689;28;20765;-68
2023/03/12 08:17:47;;;;;;;9.37;8.00;;;3.70;99.90;;;;;;5045933;28;20221;-68
2023/03/12 08:20:13;;;;;;;11.67;7.77;;;3.70;99.90;;;;;;5056137;28;20556;-68
2023/03/12 08:22:39;;;;;;;6.50;6.00;;;3.70;99.90;;;;;;5065608;28;20284;-67
2023/03/12 08:25:05;;;;;;;7.77;7.00;;;3.70;99.90;;;;;;5051131;28;20209;-66
2023/03/12 08:27:31;;;;;;;8.47;6.33;;;3.70;99.90;;;;;;5057611;28;20509;-67
2023/03/12 08:29:56;;;;;;;8.47;7.53;;;3.70;99.90;;;;;;5057353;28;20473;-68
2023/03/12 08:32:22;;;;;;;13.40;7.00;;;3.80;99.90;;;;;;5053740;28;20190;-68
2023/03/12 08:34:47;;;;;;;11.77;8.30;;;3.80;99.90;;;;;;5052688;28;20503;-68
2023/03/12 08:37:13;;;;;;;11.80;7.30;;;3.90;99.90;;;;;;5058550;28;20185;-68
2023/03/12 08:39:38;;;;;;;7.97;7.17;;;4.00;99.90;;;;;;5054900;28;20272;-69
2023/03/12 08:42:04;;;;;;;8.47;6.50;;;4.10;99.90;;;;;;5048228;28;20178;-67
2023/03/12 08:44:30;;;;;;;7.30;6.60;;;4.20;99.90;;;;;;5064249;28;20204;-69
2023/03/12 08:46:55;;;;;;;10.90;7.70;;;4.40;99.90;;;;;;5057219;28;20252;-68
2023/03/12 08:49:22;;;;;;;8.47;7.07;;;4.70;99.90;;;;;;5052391;28;20215;-68
2023/03/12 08:51:50;;;;;;;7.07;6.40;;;5.10;99.90;;;;;;5048162;28;20527;-68
2023/03/12 08:54:16;;;;;;;8.30;7.27;;;5.30;99.90;;;;;;5047907;28;20848;-68
2023/03/12 08:56:42;;;;;;;10.90;8.30;;;5.40;99.90;;;;;;5052190;28;20427;-67
2023/03/12 08:59:09;;;;;;;8.60;6.53;;;5.30;99.90;;;;;;5050019;28;20513;-68
2023/03/12 09:01:34;;;;;;;8.33;6.70;;;5.20;99.90;;;;;;5046789;28;20435;-69
2023/03/12 09:04:01;;;;;;;9.07;7.57;;;5.10;99.90;;;;;;5050076;28;20462;-68
2023/03/12 09:06:27;;;;;;;8.60;7.70;;;5.20;99.90;;;;;;5052330;28;20174;-67
2023/03/12 09:08:52;;;;;;;9.20;7.20;;;5.30;99.90;;;;;;5039342;28;20456;-67
2023/03/12 09:11:18;;;;;;;8.73;7.80;;;5.60;99.90;;;;;;5050132;28;20185;-66
2023/03/12 09:13:44;;;;;;;8.83;7.93;;;5.90;99.90;;;;;;5056933;28;20184;-68
2023/03/12 09:16:09;;;;;;;8.47;7.47;;;6.00;99.90;;;;;;5062846;28;20219;-67
2023/03/12 09:18:35;;;;;;;9.87;7.73;;;6.10;99.90;;;;;;5040688;28;20177;-69
2023/03/12 09:21:00;;;;;;;9.10;8.17;;;6.20;99.90;;;;;;5044979;28;20197;-68
2023/03/12 09:23:26;;;;;;;10.33;7.97;;;6.40;99.90;;;;;;5053066;28;20201;-68
2023/03/12 09:25:52;;;;;;;10.83;8.47;;;6.50;99.90;;;;;;5061170;28;20181;-68
2023/03/12 09:28:18;;;;;;;10.37;8.07;;;6.60;99.90;;;;;;5062970;28;20458;-68
2023/03/12 09:30:44;;;;;;;10.77;9.07;;;6.80;99.90;;;;;;5061983;28;20432;-66
2023/03/12 09:33:10;;;;;;;10.60;8.43;;;7.10;99.90;;;;;;5051576;28;20443;-66
2023/03/12 09:35:36;;;;;;;8.70;7.57;;;7.10;99.90;;;;;;5051322;28;20662;-66
2023/03/12 09:38:02;;;;;;;12.43;7.67;;;7.20;99.90;;;;;;5051859;28;20165;-66
2023/03/12 09:40:31;;;;;;;7.77;6.70;;;7.30;99.90;;;;;;5051044;28;20179;-67
2023/03/12 09:43:07;;;;;;;6.93;5.90;;;7.50;99.90;;;;;;5050972;28;20450;-66
2023/03/12 09:45:42;;;;;;;8.63;6.23;;;7.50;99.90;;;;;;5051575;28;20427;-68
2023/03/12 09:48:19;;;;;;;13.57;10.33;;;7.90;99.90;;;;;;5051579;28;20462;-67
2023/03/12 09:50:48;;;;;;;8.30;4.80;;;8.10;99.90;;;;;;5050976;28;20803;-65
2023/03/12 09:53:27;;;;;;;4.60;4.20;;;8.20;99.90;;;;;;5051522;28;20507;-65
2023/03/12 09:55:55;;;;;;;4.97;4.57;;;8.30;99.90;;;;;;5050318;28;20489;-66
2023/03/12 09:58:27;;;;;;;5.80;4.30;;;8.20;99.90;;;;;;5049589;28;20427;-66
2023/03/12 10:01:10;;;;;;;5.30;3.70;;;8.20;99.90;;;;;;5050615;28;21086;-65
2023/03/12 10:04:04;;;;;;;5.20;3.73;;;8.30;99.90;;;;;;5043087;28;20460;-68
2023/03/12 10:06:44;;;;;;;4.67;3.50;;;8.40;99.90;;;;;;5054793;28;20419;-67
2023/03/12 10:09:19;;;;;;;7.97;3.83;;;8.60;99.90;;;;;;5054432;28;20483;-67
2023/03/12 10:11:47;;;;;;;5.47;4.30;;;8.50;99.90;;;;;;5055443;28;20399;-66
2023/03/12 10:14:44;;;;;;;4.67;4.03;;;8.50;99.90;;;;;;5054699;28;20479;-67
2023/03/12 10:17:22;;;;;;;7.43;4.80;;;8.90;99.90;;;;;;5055224;28;20891;-67
2023/03/12 10:19:56;;;;;;;7.30;3.10;;;9.60;99.90;;;;;;5053921;28;20885;-67
2023/03/12 10:22:48;;;;;;;3.37;3.07;;;9.80;99.90;;;;;;5055412;28;20420;-67
2023/03/12 10:25:27;;;;;;;3.70;2.90;;;10.30;99.90;;;;;;5054279;28;20458;-66
2023/03/12 10:27:57;;;;;;;2.70;2.40;;;10.30;99.90;;;;;;5050075;28;20459;-66
2023/03/12 10:30:25;;;;;;;2.67;2.47;;;10.40;99.90;;;;;;5056541;28;20482;-65
2023/03/12 10:32:56;;;;;;;3.33;2.83;;;10.80;99.90;;;;;;5057929;28;20478;-67
2023/03/12 10:35:25;;;;;;;2.50;2.00;;;12.00;99.90;;;;;;5062092;28;20479;-67
2023/03/12 10:37:57;;;;;;;2.80;2.60;;;12.60;99.90;;;;;;5059438;28;20440;-67
2023/03/12 10:40:33;;;;;;;2.60;2.40;;;12.60;99.90;;;;;;5050932;28;20488;-68
2023/03/12 10:42:58;;;;;;;4.90;2.90;;;12.10;99.90;;;;;;5056680;28;20435;-66
2023/03/12 10:45:38;;;;;;;6.80;3.20;;;11.50;99.90;;;;;;5061564;28;20979;-67
2023/03/12 10:48:07;;;;;;;4.37;2.90;;;10.70;99.90;;;;;;5063609;28;20201;-66
2023/03/12 10:50:38;;;;;;;4.13;2.50;;;10.40;99.90;;;;;;5049896;28;20571;-66
2023/03/12 10:53:27;;;;;;;3.90;3.50;;;10.00;99.90;;;;;;5053959;28;20940;-67
2023/03/12 10:56:14;;;;;;;3.40;3.13;;;9.80;99.90;;;;;;5059911;28;20432;-68
2023/03/12 10:58:46;;;;;;;4.97;3.70;;;9.80;99.90;;;;;;5049565;28;20461;-66
2023/03/12 11:01:34;;;;;;;2.40;2.20;;;10.00;99.90;;;;;;5058572;28;20435;-68
2023/03/12 11:04:23;;;;;;;13.50;2.63;;;10.70;99.90;;;;;;5050310;28;20460;-68
2023/03/12 11:07:03;;;;;;;3.17;2.50;;;13.30;99.90;;;;;;5044119;28;20428;-68
2023/03/12 11:09:29;;;;;;;3.03;2.73;;;15.20;99.90;;;;;;5045861;28;20473;-66
2023/03/12 11:11:55;;;;;;;3.27;3.07;;;16.60;99.90;;;;;;5046953;28;20479;-68
2023/03/12 11:14:24;;;;;;;2.10;1.90;;;17.50;99.90;;;;;;5043293;28;20616;-67
2023/03/12 11:16:51;;;;;;;2.40;2.20;;;17.20;99.90;;;;;;5053663;28;20436;-67
2023/03/12 11:19:33;;;;;;;3.03;2.10;;;16.30;99.90;;;;;;5050432;28;20443;-68
2023/03/12 11:22:04;;;;;;;2.20;2.00;;;14.90;99.90;;;;;;5060476;28;20442;-67
2023/03/12 11:24:30;;;;;;;1.40;1.30;;;13.50;99.90;;;;;;5053807;28;21180;-68
2023/03/12 11:27:17;;;;;;;2.50;1.50;;;12.70;99.90;;;;;;5059323;28;20439;-68
2023/03/12 11:29:47;;;;;;;1.80;1.40;;;12.40;99.90;;;;;;5056899;28;20529;-68
2023/03/12 11:32:18;;;;;;;1.40;1.30;;;13.10;99.90;;;;;;5058649;28;20428;-68
2023/03/12 11:34:48;;;;;;;1.37;1.10;;;14.80;99.90;;;;;;5054576;28;20553;-68
2023/03/12 11:37:36;;;;;;;2.83;1.57;;;14.70;99.90;;;;;;5053516;28;20495;-68
2023/03/12 11:40:20;;;;;;;3.57;1.80;;;14.90;99.90;;;;;;5053115;28;20446;-69
2023/03/12 11:43:01;;;;;;;3.17;1.57;;;14.90;99.90;;;;;;5053662;28;20465;-67
2023/03/12 11:45:42;;;;;;;1.60;1.50;;;14.90;99.90;;;;;;5053573;28;20500;-69
2023/03/12 11:48:14;;;;;;;1.70;1.23;;;15.00;99.90;;;;;;5052658;28;20563;-67
2023/03/12 11:51:02;;;;;;;1.60;1.50;;;14.60;99.90;;;;;;5045994;28;20434;-69
2023/03/12 11:53:39;;;;;;;1.17;1.07;;;14.10;99.90;;;;;;5052269;28;20586;-68
2023/03/12 11:56:40;;;;;;;1.47;1.20;;;13.20;99.90;;;;;;5059133;28;20529;-68
2023/03/12 11:59:24;;;;;;;1.20;1.10;;;13.00;99.90;;;;;;5040231;28;20439;-68
2023/03/12 12:02:17;;;;;;;2.80;1.53;;;13.40;99.90;;;;;;5047113;28;20411;-68
2023/03/12 12:04:45;;;;;;;1.73;1.63;;;13.20;99.90;;;;;;5047144;28;20452;-66
2023/03/12 12:07:41;;;;;;;1.90;1.30;;;12.90;99.90;;;;;;5049068;28;20476;-69
2023/03/12 12:10:24;;;;;;;3.00;1.27;;;12.70;99.90;;;;;;5044866;28;20444;-69
2023/03/12 12:13:21;;;;;;;2.63;1.60;;;12.60;99.90;;;;;;5050557;28;20821;-68
2023/03/12 12:16:15;;;;;;;1.47;1.37;;;12.90;99.90;;;;;;5050584;28;20452;-69
2023/03/12 12:19:09;;;;;;;3.17;1.70;;;14.40;99.90;;;;;;5050562;28;20443;-68
2023/03/12 12:21:56;;;;;;;1.70;1.30;;;16.20;99.90;;;;;;5048198;28;20492;-65
2023/03/12 12:24:58;;;;;;;2.13;1.80;;;17.30;99.90;;;;;;5049986;28;20984;-67
2023/03/12 12:27:27;;;;;;;4.20;2.50;;;18.40;99.90;;;;;;5053379;28;20467;-68
2023/03/12 12:30:11;;;;;;;3.93;3.40;;;20.10;99.90;;;;;;5047266;28;20440;-67
2023/03/12 12:33:17;;;;;;;4.83;2.30;;;20.40;99.80;;;;;;5045646;28;20522;-67
2023/03/12 12:35:44;;;;;;;1.50;1.40;;;18.60;99.90;;;;;;5046707;28;20447;-68
2023/03/12 12:38:31;;;;;;;3.93;1.90;;;17.60;99.90;;;;;;5045815;28;20563;-65
2023/03/12 12:41:17;;;;;;;2.53;2.33;;;17.50;99.90;;;;;;5053069;28;20474;-66
2023/03/12 12:43:49;;;;;;;3.57;2.47;;;16.80;99.90;;;;;;5048184;28;20491;-66
2023/03/12 12:46:19;;;;;;;4.70;2.40;;;16.20;99.90;;;;;;5044125;28;20922;-67
2023/03/12 12:48:53;;;;;;;3.63;2.27;;;17.50;99.90;;;;;;5044500;28;20477;-68
2023/03/12 12:51:21;;;;;;;4.23;2.13;;;18.50;99.90;;;;;;5042666;28;20805;-68
2023/03/12 12:54:01;;;;;;;3.00;2.20;;;17.80;99.90;;;;;;5049331;28;20451;-68
2023/03/12 12:56:32;;;;;;;2.50;1.83;;;16.90;99.90;;;;;;5054844;28;20467;-68
2023/03/12 12:59:20;;;;;;;7.30;2.43;;;15.80;99.90;;;;;;5054478;28;20443;-68
2023/03/12 13:01:46;;;;;;;2.63;2.20;;;15.00;99.90;;;;;;5049748;28;20963;-68
2023/03/12 13:04:19;;;;;;;2.10;1.30;;;14.20;99.90;;;;;;5064858;28;20529;-68